Welland, Canada
Current Conditions -  °F | °C
As of 9:00 PM on Tuesday 21 Oct 2014 (Local Time) from CYSN Reporting Station
Rain Showers Rain Showers  
Wind Chill: 37°   Ceiling: 1400
Heat Index: 45°   Visibility: 5mi
Dew Point: 43°   Wind: 17mph
Humidity: 93%   Direction: 30°NNE
Pressure: 30.08"   Gusts: 23mph
Location:  42.99°N, 79.24°W
Report Text: CYSN 220100Z 03015G20KT 5SM -SHRA BR SCT007 OVC014 07/06 A3008 RMK SF3SC5 LAST STFD OBS / NEXT 221100 UTC SLP188
Loading
Personal Weather Stations






























Interactive Weather Map
Tropical Storm Tracking
New forecast layout! Learn more

10-Day Weather Forecast

Advertisements
Track Severe Weather on mobile